sensor_id;sensor_type;location;lat;lon;timestamp;P1;durP1;ratioP1;P2;durP2;ratioP2
17207;SDS011;8720;48.488;9.202;2023-05-29T00:01:44;7.43;;;5.77;;
17207;SDS011;8720;48.488;9.202;2023-05-29T00:04:12;6.57;;;5.17;;
17207;SDS011;8720;48.488;9.202;2023-05-29T00:06:39;7.93;;;5.90;;
17207;SDS011;8720;48.488;9.202;2023-05-29T00:09:08;7.27;;;5.97;;
17207;SDS011;8720;48.488;9.202;2023-05-29T00:11:35;7.57;;;5.80;;
17207;SDS011;8720;48.488;9.202;2023-05-29T00:14:02;6.00;;;5.27;;
17207;SDS011;8720;48.488;9.202;2023-05-29T00:16:30;7.50;;;6.10;;
17207;SDS011;8720;48.488;9.202;2023-05-29T00:18:57;8.17;;;5.93;;
17207;SDS011;8720;48.488;9.202;2023-05-29T00:21:24;6.67;;;5.90;;
17207;SDS011;8720;48.488;9.202;2023-05-29T00:23:51;6.37;;;5.00;;
17207;SDS011;8720;48.488;9.202;2023-05-29T00:26:20;7.67;;;5.50;;
17207;SDS011;8720;48.488;9.202;2023-05-29T00:28:53;7.07;;;4.97;;
17207;SDS011;8720;48.488;9.202;2023-05-29T00:31:20;8.00;;;5.70;;
17207;SDS011;8720;48.488;9.202;2023-05-29T00:33:47;6.47;;;5.60;;
17207;SDS011;8720;48.488;9.202;2023-05-29T00:36:15;7.40;;;5.50;;
17207;SDS011;8720;48.488;9.202;2023-05-29T00:38:43;6.30;;;5.33;;
17207;SDS011;8720;48.488;9.202;2023-05-29T00:41:12;6.53;;;5.50;;
17207;SDS011;8720;48.488;9.202;2023-05-29T00:43:43;12.57;;;6.23;;
17207;SDS011;8720;48.488;9.202;2023-05-29T00:46:10;6.63;;;5.30;;
17207;SDS011;8720;48.488;9.202;2023-05-29T00:48:41;8.80;;;6.13;;
17207;SDS011;8720;48.488;9.202;2023-05-29T00:51:09;7.87;;;5.50;;
17207;SDS011;8720;48.488;9.202;2023-05-29T00:53:40;7.87;;;5.50;;
17207;SDS011;8720;48.488;9.202;2023-05-29T00:56:11;7.20;;;5.30;;
17207;SDS011;8720;48.488;9.202;2023-05-29T00:58:39;6.33;;;5.47;;
17207;SDS011;8720;48.488;9.202;2023-05-29T01:01:10;9.27;;;6.20;;
17207;SDS011;8720;48.488;9.202;2023-05-29T01:03:37;7.80;;;5.80;;
17207;SDS011;8720;48.488;9.202;2023-05-29T01:06:06;7.40;;;5.73;;
17207;SDS011;8720;48.488;9.202;2023-05-29T01:08:35;8.57;;;6.07;;
17207;SDS011;8720;48.488;9.202;2023-05-29T01:11:04;7.97;;;5.60;;
17207;SDS011;8720;48.488;9.202;2023-05-29T01:13:47;7.23;;;5.27;;
17207;SDS011;8720;48.488;9.202;2023-05-29T01:16:20;8.70;;;4.80;;
17207;SDS011;8720;48.488;9.202;2023-05-29T01:19:00;7.53;;;5.83;;
17207;SDS011;8720;48.488;9.202;2023-05-29T01:21:48;5.70;;;4.90;;
17207;SDS011;8720;48.488;9.202;2023-05-29T01:24:42;6.73;;;5.73;;
17207;SDS011;8720;48.488;9.202;2023-05-29T01:27:18;9.97;;;6.03;;
17207;SDS011;8720;48.488;9.202;2023-05-29T01:29:51;8.07;;;6.30;;
17207;SDS011;8720;48.488;9.202;2023-05-29T01:32:21;8.43;;;6.00;;
17207;SDS011;8720;48.488;9.202;2023-05-29T01:34:51;7.13;;;5.60;;
17207;SDS011;8720;48.488;9.202;2023-05-29T01:37:19;8.10;;;6.00;;
17207;SDS011;8720;48.488;9.202;2023-05-29T01:39:46;6.73;;;5.93;;
17207;SDS011;8720;48.488;9.202;2023-05-29T01:42:14;8.87;;;6.70;;
17207;SDS011;8720;48.488;9.202;2023-05-29T01:44:43;8.70;;;6.10;;
17207;SDS011;8720;48.488;9.202;2023-05-29T01:47:15;8.77;;;5.77;;
17207;SDS011;8720;48.488;9.202;2023-05-29T01:49:43;7.93;;;5.60;;
17207;SDS011;8720;48.488;9.202;2023-05-29T01:52:11;8.30;;;4.90;;
17207;SDS011;8720;48.488;9.202;2023-05-29T01:54:38;9.10;;;5.20;;
17207;SDS011;8720;48.488;9.202;2023-05-29T01:57:05;6.97;;;5.50;;
17207;SDS011;8720;48.488;9.202;2023-05-29T01:59:33;8.20;;;5.80;;
17207;SDS011;8720;48.488;9.202;2023-05-29T02:02:07;8.97;;;5.67;;
17207;SDS011;8720;48.488;9.202;2023-05-29T02:04:35;5.90;;;4.77;;
17207;SDS011;8720;48.488;9.202;2023-05-29T02:07:03;8.20;;;5.17;;
17207;SDS011;8720;48.488;9.202;2023-05-29T02:09:31;9.53;;;6.30;;
17207;SDS011;8720;48.488;9.202;2023-05-29T02:11:59;7.10;;;5.40;;
17207;SDS011;8720;48.488;9.202;2023-05-29T02:14:27;8.87;;;4.80;;
17207;SDS011;8720;48.488;9.202;2023-05-29T02:16:55;7.10;;;4.90;;
17207;SDS011;8720;48.488;9.202;2023-05-29T02:19:24;7.30;;;5.40;;
17207;SDS011;8720;48.488;9.202;2023-05-29T02:21:52;6.60;;;4.90;;
17207;SDS011;8720;48.488;9.202;2023-05-29T02:24:20;6.40;;;4.90;;
17207;SDS011;8720;48.488;9.202;2023-05-29T02:26:47;7.50;;;4.90;;
17207;SDS011;8720;48.488;9.202;2023-05-29T02:29:16;5.77;;;4.77;;
17207;SDS011;8720;48.488;9.202;2023-05-29T02:31:43;6.07;;;4.90;;
17207;SDS011;8720;48.488;9.202;2023-05-29T02:34:10;6.77;;;5.50;;
17207;SDS011;8720;48.488;9.202;2023-05-29T02:36:39;8.40;;;5.73;;
17207;SDS011;8720;48.488;9.202;2023-05-29T02:39:06;6.37;;;5.23;;
17207;SDS011;8720;48.488;9.202;2023-05-29T02:41:34;7.97;;;5.20;;
17207;SDS011;8720;48.488;9.202;2023-05-29T02:44:01;6.40;;;5.23;;
17207;SDS011;8720;48.488;9.202;2023-05-29T02:46:29;8.20;;;5.63;;
17207;SDS011;8720;48.488;9.202;2023-05-29T02:48:56;7.23;;;5.33;;
17207;SDS011;8720;48.488;9.202;2023-05-29T02:51:23;7.43;;;5.43;;
17207;SDS011;8720;48.488;9.202;2023-05-29T02:53:52;6.27;;;4.60;;
17207;SDS011;8720;48.488;9.202;2023-05-29T02:56:19;7.93;;;5.50;;
17207;SDS011;8720;48.488;9.202;2023-05-29T02:58:49;6.57;;;5.40;;
17207;SDS011;8720;48.488;9.202;2023-05-29T03:01:17;8.03;;;5.30;;
17207;SDS011;8720;48.488;9.202;2023-05-29T03:03:44;6.63;;;5.23;;
17207;SDS011;8720;48.488;9.202;2023-05-29T03:06:11;6.83;;;5.23;;
17207;SDS011;8720;48.488;9.202;2023-05-29T03:08:39;6.53;;;5.00;;
17207;SDS011;8720;48.488;9.202;2023-05-29T03:11:08;6.00;;;4.93;;
17207;SDS011;8720;48.488;9.202;2023-05-29T03:13:36;7.30;;;4.93;;
17207;SDS011;8720;48.488;9.202;2023-05-29T03:16:07;6.57;;;5.20;;
17207;SDS011;8720;48.488;9.202;2023-05-29T03:18:37;7.27;;;5.60;;
17207;SDS011;8720;48.488;9.202;2023-05-29T03:21:05;5.80;;;5.00;;
17207;SDS011;8720;48.488;9.202;2023-05-29T03:23:34;7.67;;;5.37;;
17207;SDS011;8720;48.488;9.202;2023-05-29T03:26:02;7.20;;;4.60;;
17207;SDS011;8720;48.488;9.202;2023-05-29T03:28:32;6.83;;;5.20;;
17207;SDS011;8720;48.488;9.202;2023-05-29T03:31:04;5.70;;;4.77;;
17207;SDS011;8720;48.488;9.202;2023-05-29T03:33:33;6.20;;;4.80;;
17207;SDS011;8720;48.488;9.202;2023-05-29T03:36:20;6.70;;;4.73;;
17207;SDS011;8720;48.488;9.202;2023-05-29T03:38:48;8.07;;;5.20;;
17207;SDS011;8720;48.488;9.202;2023-05-29T03:41:17;8.87;;;5.50;;
17207;SDS011;8720;48.488;9.202;2023-05-29T03:43:46;6.67;;;5.63;;
17207;SDS011;8720;48.488;9.202;2023-05-29T03:46:15;7.20;;;4.87;;
17207;SDS011;8720;48.488;9.202;2023-05-29T03:48:42;7.00;;;4.30;;
17207;SDS011;8720;48.488;9.202;2023-05-29T03:51:09;5.23;;;4.30;;
17207;SDS011;8720;48.488;9.202;2023-05-29T03:53:38;6.07;;;5.00;;
17207;SDS011;8720;48.488;9.202;2023-05-29T03:56:07;5.90;;;5.00;;
17207;SDS011;8720;48.488;9.202;2023-05-29T03:58:34;6.73;;;5.43;;
17207;SDS011;8720;48.488;9.202;2023-05-29T04:01:03;7.37;;;5.60;;
17207;SDS011;8720;48.488;9.202;2023-05-29T04:03:31;6.40;;;5.40;;
17207;SDS011;8720;48.488;9.202;2023-05-29T04:05:59;7.50;;;5.57;;
17207;SDS011;8720;48.488;9.202;2023-05-29T04:08:26;7.30;;;5.60;;
17207;SDS011;8720;48.488;9.202;2023-05-29T04:10:53;8.73;;;5.27;;
17207;SDS011;8720;48.488;9.202;2023-05-29T04:13:21;6.60;;;5.30;;
17207;SDS011;8720;48.488;9.202;2023-05-29T04:15:48;6.03;;;5.00;;
17207;SDS011;8720;48.488;9.202;2023-05-29T04:18:19;8.40;;;6.00;;
17207;SDS011;8720;48.488;9.202;2023-05-29T04:20:47;5.90;;;4.90;;
17207;SDS011;8720;48.488;9.202;2023-05-29T04:23:16;5.73;;;5.03;;
17207;SDS011;8720;48.488;9.202;2023-05-29T04:25:43;5.87;;;5.23;;
17207;SDS011;8720;48.488;9.202;2023-05-29T04:28:13;7.60;;;5.83;;
17207;SDS011;8720;48.488;9.202;2023-05-29T04:30:40;8.03;;;5.00;;
17207;SDS011;8720;48.488;9.202;2023-05-29T04:33:08;6.20;;;5.20;;
17207;SDS011;8720;48.488;9.202;2023-05-29T04:35:44;8.67;;;5.67;;
17207;SDS011;8720;48.488;9.202;2023-05-29T04:38:13;5.80;;;5.20;;
17207;SDS011;8720;48.488;9.202;2023-05-29T04:40:42;6.23;;;5.20;;
17207;SDS011;8720;48.488;9.202;2023-05-29T04:43:11;9.00;;;6.22;;
17207;SDS011;8720;48.488;9.202;2023-05-29T04:46:01;6.20;;;5.07;;
17207;SDS011;8720;48.488;9.202;2023-05-29T04:48:32;6.57;;;5.40;;
17207;SDS011;8720;48.488;9.202;2023-05-29T04:51:01;8.47;;;6.37;;
17207;SDS011;8720;48.488;9.202;2023-05-29T04:53:29;7.17;;;6.00;;
17207;SDS011;8720;48.488;9.202;2023-05-29T04:55:57;7.03;;;5.93;;
17207;SDS011;8720;48.488;9.202;2023-05-29T04:58:25;8.07;;;5.60;;
17207;SDS011;8720;48.488;9.202;2023-05-29T05:00:53;6.90;;;5.87;;
17207;SDS011;8720;48.488;9.202;2023-05-29T05:03:24;9.83;;;6.20;;
17207;SDS011;8720;48.488;9.202;2023-05-29T05:05:52;8.30;;;6.30;;
17207;SDS011;8720;48.488;9.202;2023-05-29T05:08:21;8.50;;;6.53;;
17207;SDS011;8720;48.488;9.202;2023-05-29T05:10:48;7.07;;;6.17;;
17207;SDS011;8720;48.488;9.202;2023-05-29T05:13:17;6.60;;;5.70;;
17207;SDS011;8720;48.488;9.202;2023-05-29T05:15:45;9.00;;;5.97;;
17207;SDS011;8720;48.488;9.202;2023-05-29T05:18:13;7.40;;;6.10;;
17207;SDS011;8720;48.488;9.202;2023-05-29T05:20:44;5.90;;;5.33;;
17207;SDS011;8720;48.488;9.202;2023-05-29T05:23:12;8.80;;;6.47;;
17207;SDS011;8720;48.488;9.202;2023-05-29T05:25:40;8.10;;;6.37;;
17207;SDS011;8720;48.488;9.202;2023-05-29T05:28:08;8.47;;;6.23;;
17207;SDS011;8720;48.488;9.202;2023-05-29T05:30:35;7.20;;;5.70;;
17207;SDS011;8720;48.488;9.202;2023-05-29T05:33:03;7.30;;;6.00;;
17207;SDS011;8720;48.488;9.202;2023-05-29T05:35:31;7.33;;;5.90;;
17207;SDS011;8720;48.488;9.202;2023-05-29T05:37:58;6.00;;;5.40;;
17207;SDS011;8720;48.488;9.202;2023-05-29T05:40:27;7.50;;;6.00;;
17207;SDS011;8720;48.488;9.202;2023-05-29T05:43:01;5.50;;;4.77;;
17207;SDS011;8720;48.488;9.202;2023-05-29T05:45:49;6.30;;;5.70;;
17207;SDS011;8720;48.488;9.202;2023-05-29T05:48:16;5.40;;;4.90;;
17207;SDS011;8720;48.488;9.202;2023-05-29T05:50:44;6.57;;;5.40;;
17207;SDS011;8720;48.488;9.202;2023-05-29T05:53:12;5.90;;;5.30;;
17207;SDS011;8720;48.488;9.202;2023-05-29T05:55:39;6.10;;;5.50;;
17207;SDS011;8720;48.488;9.202;2023-05-29T05:58:08;6.50;;;5.00;;
17207;SDS011;8720;48.488;9.202;2023-05-29T06:00:35;6.00;;;5.40;;
17207;SDS011;8720;48.488;9.202;2023-05-29T06:03:03;6.00;;;5.37;;
17207;SDS011;8720;48.488;9.202;2023-05-29T06:05:46;6.37;;;5.30;;
17207;SDS011;8720;48.488;9.202;2023-05-29T06:08:14;7.37;;;4.90;;
17207;SDS011;8720;48.488;9.202;2023-05-29T06:10:42;6.80;;;5.50;;
17207;SDS011;8720;48.488;9.202;2023-05-29T06:13:11;5.60;;;4.83;;
17207;SDS011;8720;48.488;9.202;2023-05-29T06:15:45;7.20;;;5.50;;
17207;SDS011;8720;48.488;9.202;2023-05-29T06:18:12;6.23;;;4.83;;
17207;SDS011;8720;48.488;9.202;2023-05-29T06:20:39;5.40;;;4.90;;
17207;SDS011;8720;48.488;9.202;2023-05-29T06:23:07;6.00;;;5.40;;
17207;SDS011;8720;48.488;9.202;2023-05-29T06:25:36;6.53;;;5.07;;
17207;SDS011;8720;48.488;9.202;2023-05-29T06:28:05;6.40;;;5.53;;
17207;SDS011;8720;48.488;9.202;2023-05-29T06:30:33;6.20;;;5.47;;
17207;SDS011;8720;48.488;9.202;2023-05-29T06:33:04;6.53;;;5.87;;
17207;SDS011;8720;48.488;9.202;2023-05-29T06:35:34;6.40;;;5.60;;
17207;SDS011;8720;48.488;9.202;2023-05-29T06:38:01;6.10;;;5.50;;
17207;SDS011;8720;48.488;9.202;2023-05-29T06:40:28;6.23;;;5.60;;
17207;SDS011;8720;48.488;9.202;2023-05-29T06:42:55;5.77;;;5.17;;
17207;SDS011;8720;48.488;9.202;2023-05-29T06:45:40;6.70;;;5.53;;
17207;SDS011;8720;48.488;9.202;2023-05-29T06:48:08;5.97;;;5.37;;
17207;SDS011;8720;48.488;9.202;2023-05-29T06:50:37;7.43;;;6.00;;
17207;SDS011;8720;48.488;9.202;2023-05-29T06:53:25;6.23;;;5.30;;
17207;SDS011;8720;48.488;9.202;2023-05-29T06:55:55;6.00;;;5.40;;
17207;SDS011;8720;48.488;9.202;2023-05-29T06:58:22;6.90;;;5.80;;
17207;SDS011;8720;48.488;9.202;2023-05-29T07:00:51;7.70;;;5.50;;
17207;SDS011;8720;48.488;9.202;2023-05-29T07:03:27;6.90;;;4.90;;
17207;SDS011;8720;48.488;9.202;2023-05-29T07:05:55;5.70;;;5.10;;
17207;SDS011;8720;48.488;9.202;2023-05-29T07:08:23;5.97;;;5.37;;
17207;SDS011;8720;48.488;9.202;2023-05-29T07:10:51;6.00;;;4.90;;
17207;SDS011;8720;48.488;9.202;2023-05-29T07:13:20;5.20;;;4.70;;
17207;SDS011;8720;48.488;9.202;2023-05-29T07:15:48;6.67;;;5.00;;
17207;SDS011;8720;48.488;9.202;2023-05-29T07:18:26;6.10;;;4.80;;
17207;SDS011;8720;48.488;9.202;2023-05-29T07:20:53;6.80;;;5.10;;
17207;SDS011;8720;48.488;9.202;2023-05-29T07:23:23;6.30;;;4.90;;
17207;SDS011;8720;48.488;9.202;2023-05-29T07:25:52;7.40;;;4.77;;
17207;SDS011;8720;48.488;9.202;2023-05-29T07:28:19;6.00;;;5.20;;
17207;SDS011;8720;48.488;9.202;2023-05-29T07:30:47;5.77;;;5.17;;
17207;SDS011;8720;48.488;9.202;2023-05-29T07:33:15;5.43;;;4.53;;
17207;SDS011;8720;48.488;9.202;2023-05-29T07:35:44;5.73;;;5.03;;
17207;SDS011;8720;48.488;9.202;2023-05-29T07:38:11;6.10;;;5.00;;
17207;SDS011;8720;48.488;9.202;2023-05-29T07:40:40;5.90;;;5.00;;
17207;SDS011;8720;48.488;9.202;2023-05-29T07:43:18;4.57;;;4.17;;
17207;SDS011;8720;48.488;9.202;2023-05-29T07:45:55;5.40;;;4.80;;
17207;SDS011;8720;48.488;9.202;2023-05-29T07:48:24;6.37;;;5.30;;
17207;SDS011;8720;48.488;9.202;2023-05-29T07:50:52;6.57;;;4.30;;
17207;SDS011;8720;48.488;9.202;2023-05-29T07:53:19;5.47;;;4.73;;
17207;SDS011;8720;48.488;9.202;2023-05-29T07:55:47;5.03;;;4.53;;
17207;SDS011;8720;48.488;9.202;2023-05-29T07:58:15;5.70;;;4.37;;
17207;SDS011;8720;48.488;9.202;2023-05-29T08:00:44;5.20;;;4.40;;
17207;SDS011;8720;48.488;9.202;2023-05-29T08:03:12;5.50;;;4.73;;
17207;SDS011;8720;48.488;9.202;2023-05-29T08:05:42;5.40;;;4.83;;
17207;SDS011;8720;48.488;9.202;2023-05-29T08:08:11;6.50;;;4.37;;
17207;SDS011;8720;48.488;9.202;2023-05-29T08:10:39;6.00;;;5.20;;
17207;SDS011;8720;48.488;9.202;2023-05-29T08:13:07;5.73;;;4.97;;
17207;SDS011;8720;48.488;9.202;2023-05-29T08:15:36;8.20;;;5.20;;
17207;SDS011;8720;48.488;9.202;2023-05-29T08:18:04;5.87;;;5.00;;
17207;SDS011;8720;48.488;9.202;2023-05-29T08:20:31;6.20;;;5.07;;
17207;SDS011;8720;48.488;9.202;2023-05-29T08:23:01;6.73;;;4.93;;
17207;SDS011;8720;48.488;9.202;2023-05-29T08:25:29;7.13;;;5.20;;
17207;SDS011;8720;48.488;9.202;2023-05-29T08:27:56;6.43;;;4.97;;
17207;SDS011;8720;48.488;9.202;2023-05-29T08:30:23;6.57;;;4.93;;
17207;SDS011;8720;48.488;9.202;2023-05-29T08:32:51;6.30;;;4.60;;
17207;SDS011;8720;48.488;9.202;2023-05-29T08:35:18;5.20;;;4.40;;
17207;SDS011;8720;48.488;9.202;2023-05-29T08:37:45;5.83;;;4.93;;
17207;SDS011;8720;48.488;9.202;2023-05-29T08:40:14;5.93;;;4.83;;
17207;SDS011;8720;48.488;9.202;2023-05-29T08:42:43;5.57;;;4.70;;
17207;SDS011;8720;48.488;9.202;2023-05-29T08:45:14;5.07;;;4.57;;
17207;SDS011;8720;48.488;9.202;2023-05-29T08:47:45;8.83;;;4.97;;
17207;SDS011;8720;48.488;9.202;2023-05-29T08:50:18;5.30;;;4.20;;
17207;SDS011;8720;48.488;9.202;2023-05-29T08:52:47;6.10;;;4.47;;
17207;SDS011;8720;48.488;9.202;2023-05-29T08:55:16;4.93;;;4.50;;
17207;SDS011;8720;48.488;9.202;2023-05-29T08:57:44;5.80;;;4.90;;
17207;SDS011;8720;48.488;9.202;2023-05-29T09:00:12;6.73;;;4.70;;
17207;SDS011;8720;48.488;9.202;2023-05-29T09:02:43;5.87;;;5.10;;
17207;SDS011;8720;48.488;9.202;2023-05-29T09:05:11;7.40;;;4.73;;
17207;SDS011;8720;48.488;9.202;2023-05-29T09:07:38;5.93;;;4.60;;
17207;SDS011;8720;48.488;9.202;2023-05-29T09:10:06;6.07;;;4.97;;
17207;SDS011;8720;48.488;9.202;2023-05-29T09:12:37;7.67;;;5.30;;
17207;SDS011;8720;48.488;9.202;2023-05-29T09:15:08;8.70;;;4.83;;
17207;SDS011;8720;48.488;9.202;2023-05-29T09:17:44;5.67;;;4.80;;
17207;SDS011;8720;48.488;9.202;2023-05-29T09:20:17;5.57;;;4.97;;
17207;SDS011;8720;48.488;9.202;2023-05-29T09:22:52;6.47;;;4.70;;
17207;SDS011;8720;48.488;9.202;2023-05-29T09:25:22;4.97;;;4.27;;
17207;SDS011;8720;48.488;9.202;2023-05-29T09:27:54;5.00;;;4.50;;
17207;SDS011;8720;48.488;9.202;2023-05-29T09:30:30;4.77;;;4.10;;
17207;SDS011;8720;48.488;9.202;2023-05-29T09:33:00;8.43;;;4.93;;
17207;SDS011;8720;48.488;9.202;2023-05-29T09:35:32;6.77;;;4.90;;
17207;SDS011;8720;48.488;9.202;2023-05-29T09:38:03;6.30;;;4.73;;
17207;SDS011;8720;48.488;9.202;2023-05-29T09:40:32;5.30;;;4.80;;
17207;SDS011;8720;48.488;9.202;2023-05-29T09:43:06;6.07;;;4.90;;
17207;SDS011;8720;48.488;9.202;2023-05-29T09:45:37;5.60;;;4.80;;
17207;SDS011;8720;48.488;9.202;2023-05-29T09:48:06;5.43;;;4.93;;
17207;SDS011;8720;48.488;9.202;2023-05-29T09:50:38;7.83;;;5.07;;
17207;SDS011;8720;48.488;9.202;2023-05-29T09:53:15;6.40;;;4.00;;
17207;SDS011;8720;48.488;9.202;2023-05-29T09:55:45;5.87;;;4.73;;
17207;SDS011;8720;48.488;9.202;2023-05-29T09:58:15;5.50;;;4.50;;
17207;SDS011;8720;48.488;9.202;2023-05-29T10:00:44;5.03;;;4.53;;
17207;SDS011;8720;48.488;9.202;2023-05-29T10:03:12;5.70;;;4.30;;
17207;SDS011;8720;48.488;9.202;2023-05-29T10:05:40;4.60;;;4.10;;
17207;SDS011;8720;48.488;9.202;2023-05-29T10:08:09;4.50;;;4.10;;
17207;SDS011;8720;48.488;9.202;2023-05-29T10:10:40;6.80;;;4.10;;
17207;SDS011;8720;48.488;9.202;2023-05-29T10:13:11;6.10;;;4.73;;
17207;SDS011;8720;48.488;9.202;2023-05-29T10:15:44;7.47;;;5.00;;
17207;SDS011;8720;48.488;9.202;2023-05-29T10:18:16;6.10;;;4.63;;
17207;SDS011;8720;48.488;9.202;2023-05-29T10:20:50;5.33;;;4.67;;
17207;SDS011;8720;48.488;9.202;2023-05-29T10:23:21;5.00;;;4.50;;
17207;SDS011;8720;48.488;9.202;2023-05-29T10:25:52;6.07;;;4.23;;
17207;SDS011;8720;48.488;9.202;2023-05-29T10:28:26;4.40;;;4.00;;
17207;SDS011;8720;48.488;9.202;2023-05-29T10:30:54;4.17;;;3.77;;
17207;SDS011;8720;48.488;9.202;2023-05-29T10:33:33;6.40;;;4.53;;
17207;SDS011;8720;48.488;9.202;2023-05-29T10:36:21;5.90;;;4.77;;
17207;SDS011;8720;48.488;9.202;2023-05-29T10:38:54;4.60;;;4.00;;
17207;SDS011;8720;48.488;9.202;2023-05-29T10:41:28;4.83;;;4.33;;
17207;SDS011;8720;48.488;9.202;2023-05-29T10:43:59;6.77;;;4.07;;
17207;SDS011;8720;48.488;9.202;2023-05-29T10:49:30;4.53;;;3.77;;
17207;SDS011;8720;48.488;9.202;2023-05-29T10:51:58;7.60;;;4.57;;
17207;SDS011;8720;48.488;9.202;2023-05-29T10:54:26;8.63;;;4.67;;
17207;SDS011;8720;48.488;9.202;2023-05-29T10:56:55;5.50;;;4.30;;
17207;SDS011;8720;48.488;9.202;2023-05-29T10:59:25;5.23;;;3.93;;
17207;SDS011;8720;48.488;9.202;2023-05-29T11:01:54;4.37;;;3.97;;
17207;SDS011;8720;48.488;9.202;2023-05-29T11:04:25;5.67;;;4.20;;
17207;SDS011;8720;48.488;9.202;2023-05-29T11:06:57;5.27;;;4.37;;
17207;SDS011;8720;48.488;9.202;2023-05-29T11:09:29;5.00;;;3.77;;
17207;SDS011;8720;48.488;9.202;2023-05-29T11:12:10;9.00;;;4.47;;
17207;SDS011;8720;48.488;9.202;2023-05-29T11:14:55;4.90;;;4.30;;
17207;SDS011;8720;48.488;9.202;2023-05-29T11:17:34;5.90;;;3.60;;
17207;SDS011;8720;48.488;9.202;2023-05-29T11:23:14;6.00;;;3.87;;
17207;SDS011;8720;48.488;9.202;2023-05-29T11:25:44;3.93;;;3.40;;
17207;SDS011;8720;48.488;9.202;2023-05-29T11:28:13;4.60;;;3.67;;
17207;SDS011;8720;48.488;9.202;2023-05-29T11:30:43;5.07;;;3.90;;
17207;SDS011;8720;48.488;9.202;2023-05-29T11:33:24;5.37;;;3.70;;
17207;SDS011;8720;48.488;9.202;2023-05-29T11:35:57;4.07;;;3.37;;
17207;SDS011;8720;48.488;9.202;2023-05-29T11:38:28;4.20;;;3.80;;
17207;SDS011;8720;48.488;9.202;2023-05-29T11:40:55;4.93;;;4.07;;
17207;SDS011;8720;48.488;9.202;2023-05-29T11:43:24;4.00;;;3.60;;
17207;SDS011;8720;48.488;9.202;2023-05-29T11:45:53;6.07;;;3.70;;
17207;SDS011;8720;48.488;9.202;2023-05-29T11:48:20;4.80;;;4.03;;
17207;SDS011;8720;48.488;9.202;2023-05-29T11:50:49;6.83;;;3.50;;
17207;SDS011;8720;48.488;9.202;2023-05-29T11:53:16;4.87;;;3.87;;
17207;SDS011;8720;48.488;9.202;2023-05-29T11:55:43;4.47;;;3.37;;
17207;SDS011;8720;48.488;9.202;2023-05-29T11:58:11;3.70;;;3.30;;
17207;SDS011;8720;48.488;9.202;2023-05-29T12:00:38;4.33;;;3.83;;
17207;SDS011;8720;48.488;9.202;2023-05-29T12:03:08;4.23;;;3.70;;
17207;SDS011;8720;48.488;9.202;2023-05-29T12:05:44;4.00;;;3.30;;
17207;SDS011;8720;48.488;9.202;2023-05-29T12:08:14;6.13;;;3.47;;
17207;SDS011;8720;48.488;9.202;2023-05-29T12:10:47;5.13;;;3.77;;
17207;SDS011;8720;48.488;9.202;2023-05-29T12:13:15;4.90;;;3.20;;
17207;SDS011;8720;48.488;9.202;2023-05-29T12:15:45;5.73;;;3.87;;
17207;SDS011;8720;48.488;9.202;2023-05-29T12:18:17;4.40;;;3.40;;
17207;SDS011;8720;48.488;9.202;2023-05-29T12:20:44;3.77;;;3.30;;
17207;SDS011;8720;48.488;9.202;2023-05-29T12:23:12;5.10;;;3.60;;
17207;SDS011;8720;48.488;9.202;2023-05-29T12:25:39;4.50;;;3.70;;
17207;SDS011;8720;48.488;9.202;2023-05-29T12:28:08;6.07;;;3.23;;
17207;SDS011;8720;48.488;9.202;2023-05-29T12:30:42;4.00;;;3.10;;
17207;SDS011;8720;48.488;9.202;2023-05-29T12:33:25;6.47;;;4.00;;
17207;SDS011;8720;48.488;9.202;2023-05-29T12:36:00;4.47;;;3.27;;
17207;SDS011;8720;48.488;9.202;2023-05-29T12:38:30;5.27;;;3.40;;
17207;SDS011;8720;48.488;9.202;2023-05-29T12:40:57;3.97;;;3.37;;
17207;SDS011;8720;48.488;9.202;2023-05-29T12:43:24;3.70;;;3.37;;
17207;SDS011;8720;48.488;9.202;2023-05-29T12:45:55;3.90;;;3.30;;
17207;SDS011;8720;48.488;9.202;2023-05-29T12:48:27;3.80;;;2.93;;
17207;SDS011;8720;48.488;9.202;2023-05-29T12:50:54;4.30;;;3.20;;
17207;SDS011;8720;48.488;9.202;2023-05-29T12:53:27;3.47;;;3.17;;
17207;SDS011;8720;48.488;9.202;2023-05-29T12:55:56;3.80;;;3.30;;
17207;SDS011;8720;48.488;9.202;2023-05-29T12:58:23;5.67;;;3.73;;
17207;SDS011;8720;48.488;9.202;2023-05-29T13:00:52;6.13;;;3.37;;
17207;SDS011;8720;48.488;9.202;2023-05-29T13:03:22;3.93;;;3.47;;
17207;SDS011;8720;48.488;9.202;2023-05-29T13:05:51;3.90;;;3.30;;
17207;SDS011;8720;48.488;9.202;2023-05-29T13:08:19;3.93;;;3.40;;
17207;SDS011;8720;48.488;9.202;2023-05-29T13:10:46;4.87;;;3.20;;
17207;SDS011;8720;48.488;9.202;2023-05-29T13:13:14;8.03;;;3.10;;
17207;SDS011;8720;48.488;9.202;2023-05-29T13:15:41;3.50;;;3.20;;
17207;SDS011;8720;48.488;9.202;2023-05-29T13:18:08;4.10;;;3.13;;
17207;SDS011;8720;48.488;9.202;2023-05-29T13:20:36;3.80;;;3.00;;
17207;SDS011;8720;48.488;9.202;2023-05-29T13:23:04;4.53;;;4.03;;
17207;SDS011;8720;48.488;9.202;2023-05-29T13:25:32;3.90;;;3.43;;
17207;SDS011;8720;48.488;9.202;2023-05-29T13:27:59;3.97;;;3.30;;
17207;SDS011;8720;48.488;9.202;2023-05-29T13:30:27;3.83;;;3.13;;
17207;SDS011;8720;48.488;9.202;2023-05-29T13:32:54;4.50;;;3.50;;
17207;SDS011;8720;48.488;9.202;2023-05-29T13:35:21;4.70;;;3.00;;
17207;SDS011;8720;48.488;9.202;2023-05-29T13:37:49;5.30;;;3.40;;
17207;SDS011;8720;48.488;9.202;2023-05-29T13:40:18;4.27;;;2.93;;
17207;SDS011;8720;48.488;9.202;2023-05-29T13:42:45;4.10;;;3.10;;
17207;SDS011;8720;48.488;9.202;2023-05-29T13:45:12;4.27;;;3.30;;
17207;SDS011;8720;48.488;9.202;2023-05-29T13:47:40;5.30;;;3.20;;
17207;SDS011;8720;48.488;9.202;2023-05-29T13:50:08;6.03;;;3.67;;
17207;SDS011;8720;48.488;9.202;2023-05-29T13:52:36;4.33;;;3.60;;
17207;SDS011;8720;48.488;9.202;2023-05-29T13:55:03;3.87;;;3.30;;
17207;SDS011;8720;48.488;9.202;2023-05-29T13:57:35;3.80;;;3.30;;
17207;SDS011;8720;48.488;9.202;2023-05-29T14:00:03;3.80;;;3.37;;
17207;SDS011;8720;48.488;9.202;2023-05-29T14:02:31;3.60;;;3.23;;
17207;SDS011;8720;48.488;9.202;2023-05-29T14:04:58;3.57;;;2.90;;
17207;SDS011;8720;48.488;9.202;2023-05-29T14:07:25;3.37;;;3.07;;
17207;SDS011;8720;48.488;9.202;2023-05-29T14:09:53;3.50;;;3.20;;
17207;SDS011;8720;48.488;9.202;2023-05-29T14:12:20;3.90;;;3.13;;
17207;SDS011;8720;48.488;9.202;2023-05-29T14:14:49;5.10;;;3.40;;
17207;SDS011;8720;48.488;9.202;2023-05-29T14:17:16;4.63;;;3.57;;
17207;SDS011;8720;48.488;9.202;2023-05-29T14:19:43;3.63;;;3.33;;
17207;SDS011;8720;48.488;9.202;2023-05-29T14:22:12;4.67;;;3.53;;
17207;SDS011;8720;48.488;9.202;2023-05-29T14:24:40;4.33;;;3.23;;
17207;SDS011;8720;48.488;9.202;2023-05-29T14:27:07;5.50;;;3.27;;
17207;SDS011;8720;48.488;9.202;2023-05-29T14:29:34;3.80;;;3.10;;
17207;SDS011;8720;48.488;9.202;2023-05-29T14:32:03;4.07;;;3.20;;
17207;SDS011;8720;48.488;9.202;2023-05-29T14:34:32;7.67;;;3.80;;
17207;SDS011;8720;48.488;9.202;2023-05-29T14:36:59;4.07;;;3.43;;
17207;SDS011;8720;48.488;9.202;2023-05-29T14:39:26;5.27;;;3.47;;
17207;SDS011;8720;48.488;9.202;2023-05-29T14:41:54;4.80;;;3.77;;
17207;SDS011;8720;48.488;9.202;2023-05-29T14:44:22;4.67;;;3.83;;
17207;SDS011;8720;48.488;9.202;2023-05-29T14:46:49;4.00;;;3.13;;
17207;SDS011;8720;48.488;9.202;2023-05-29T14:49:18;5.03;;;3.30;;
17207;SDS011;8720;48.488;9.202;2023-05-29T14:51:46;3.80;;;3.37;;
17207;SDS011;8720;48.488;9.202;2023-05-29T14:54:14;4.63;;;3.97;;
17207;SDS011;8720;48.488;9.202;2023-05-29T14:56:41;3.50;;;3.20;;
17207;SDS011;8720;48.488;9.202;2023-05-29T14:59:08;3.83;;;3.53;;
17207;SDS011;8720;48.488;9.202;2023-05-29T15:01:35;3.67;;;3.33;;
17207;SDS011;8720;48.488;9.202;2023-05-29T15:04:03;5.10;;;3.73;;
17207;SDS011;8720;48.488;9.202;2023-05-29T15:06:32;5.10;;;3.80;;
17207;SDS011;8720;48.488;9.202;2023-05-29T15:08:59;5.20;;;3.73;;
17207;SDS011;8720;48.488;9.202;2023-05-29T15:11:28;4.30;;;3.27;;
17207;SDS011;8720;48.488;9.202;2023-05-29T15:13:56;4.40;;;3.70;;
17207;SDS011;8720;48.488;9.202;2023-05-29T15:16:23;4.40;;;3.00;;
17207;SDS011;8720;48.488;9.202;2023-05-29T15:18:51;5.30;;;3.50;;
17207;SDS011;8720;48.488;9.202;2023-05-29T15:21:18;6.87;;;3.77;;